Time;durP1;ratioP1;P1;durP2;ratioP2;P2;SDS_P1;SDS_P2;PMS_P1;PMS_P2;Temp;Humidity;BMP_temperature;BMP_pressure;BME280_temperature;BME280_humidity;BME280_pressure;Samples;Min_cycle;Max_cycle;Signal;HPM_P1;HPM_P2
2022/11/30 00:01:30;;;;;;;;;;;5.50;99.90;;;;;;6128629;23;20014;-78
2022/11/30 00:03:55;;;;;;;;;;;5.70;99.90;;;;;;6128636;23;19901;-76
2022/11/30 00:06:22;;;;;;;;;;;5.80;99.90;;;;;;6128511;23;19951;-77
2022/11/30 00:08:48;;;;;;;;;;;5.90;99.90;;;;;;6102503;23;20312;-77
2022/11/30 00:11:16;;;;;;;;;;;5.50;99.90;;;;;;6128401;23;19900;-79
2022/11/30 00:13:42;;;;;;;;;;;5.50;99.90;;;;;;6128389;23;19905;-77
2022/11/30 00:16:08;;;;;;;;;;;5.50;1.00;;;;;;6128519;23;19947;-77
2022/11/30 00:18:34;;;;;;;;;;;5.80;1.00;;;;;;6128316;23;19925;-76
2022/11/30 00:21:00;;;;;;;;;;;5.80;1.00;;;;;;6128245;23;20320;-78
2022/11/30 00:23:30;;;;;;;;;;;5.80;1.00;;;;;;6128564;23;19983;-78
2022/11/30 00:25:58;;;;;;;;;;;5.90;99.90;;;;;;6128614;23;19955;-78
2022/11/30 00:28:24;;;;;;;;;;;5.80;99.90;;;;;;6128193;23;20272;-77
2022/11/30 00:30:56;;;;;;;;;;;5.80;99.90;;;;;;6128199;23;19976;-79
2022/11/30 00:33:22;;;;;;;;;;;5.70;99.90;;;;;;6102119;23;20224;-77
2022/11/30 00:36:00;;;;;;;;;;;5.60;1.00;;;;;;6128453;23;19952;-79
2022/11/30 00:38:25;;;;;;;;;;;5.60;1.00;;;;;;6128118;23;19928;-78
2022/11/30 00:40:51;;;;;;;;;;;5.50;1.00;;;;;;6128094;23;19905;-79
2022/11/30 00:43:17;;;;;;;;;;;5.50;1.00;;;;;;6128111;23;19956;-77
2022/11/30 00:45:43;;;;;;;;;;;5.50;99.90;;;;;;6128849;23;19904;-78
2022/11/30 00:48:08;;;;;;;;;;;5.50;99.90;;;;;;6102023;23;19920;-79
2022/11/30 00:50:34;;;;;;;;;;;5.50;99.90;;;;;;6128069;23;19901;-77
2022/11/30 00:52:59;;;;;;;;;;;5.60;99.90;;;;;;6128169;23;20280;-77
2022/11/30 00:55:26;;;;;;;;;;;5.60;99.90;;;;;;6127976;23;19900;-78
2022/11/30 00:57:51;;;;;;;;;;;5.60;99.90;;;;;;6127810;23;19904;-78
2022/11/30 01:00:17;;;;;;;;;;;5.60;99.90;;;;;;6127894;23;19952;-78
2022/11/30 01:02:44;;;;;;;;;;;5.60;99.90;;;;;;6127443;23;19959;-78
2022/11/30 01:05:09;;;;;;;;;;;5.60;1.00;;;;;;6127821;23;19905;-79
2022/11/30 01:07:35;;;;;;;;;;;5.70;1.00;;;;;;6128191;23;19940;-79
2022/11/30 01:10:01;;;;;;;;;;;5.70;1.00;;;;;;6101796;23;20324;-79
2022/11/30 01:12:26;;;;;;;;;;;5.80;1.00;;;;;;6127832;23;19907;-77
2022/11/30 01:14:52;;;;;;;;;;;5.80;1.00;;;;;;6127823;23;19952;-79
2022/11/30 01:17:17;;;;;;;;;;;5.90;1.00;;;;;;6128276;23;20239;-78
2022/11/30 01:19:43;;;;;;;;;;;5.80;1.00;;;;;;6127771;23;19901;-77
2022/11/30 01:22:09;;;;;;;;;;;5.90;1.00;;;;;;6128146;23;19908;-78
2022/11/30 01:24:34;;;;;;;;;;;5.90;1.00;;;;;;6127585;23;19947;-77
2022/11/30 01:27:00;;;;;;;;;;;6.00;1.00;;;;;;6127663;23;19900;-78
2022/11/30 01:29:25;;;;;;;;;;;5.90;1.00;;;;;;6127609;23;19955;-78
2022/11/30 01:31:51;;;;;;;;;;;6.00;1.00;;;;;;6128096;23;20328;-79
2022/11/30 01:34:16;;;;;;;;;;;6.10;39.60;;;;;;6101647;23;19901;-78
2022/11/30 01:36:42;;;;;;;;;;;6.10;28.10;;;;;;6127660;23;19907;-79
2022/11/30 01:39:08;;;;;;;;;;;6.10;1.00;;;;;;6127553;23;19908;-78
2022/11/30 01:41:35;;;;;;;;;;;6.10;1.00;;;;;;6127563;23;19907;-78
2022/11/30 01:44:04;;;;;;;;;;;6.10;1.00;;;;;;6127512;23;19901;-78
2022/11/30 01:46:33;;;;;;;;;;;6.10;1.00;;;;;;6127974;23;19905;-79
2022/11/30 01:49:10;;;;;;;;;;;6.10;1.00;;;;;;6127500;23;19944;-76
2022/11/30 01:51:36;;;;;;;;;;;6.00;1.00;;;;;;6127923;23;19901;-78
2022/11/30 01:54:03;;;;;;;;;;;6.10;14.70;;;;;;6127236;23;19905;-78
2022/11/30 01:56:29;;;;;;;;;;;6.10;21.90;;;;;;6127473;23;19905;-78
2022/11/30 01:58:54;;;;;;;;;;;6.20;23.30;;;;;;6127365;23;20239;-78
2022/11/30 02:01:20;;;;;;;;;;;6.20;30.60;;;;;;6127630;23;19909;-77
2022/11/30 02:03:54;;;;;;;;;;;6.30;53.90;;;;;;6127586;23;19900;-78
2022/11/30 02:06:20;;;;;;;;;;;6.30;34.40;;;;;;6127420;23;19905;-78
2022/11/30 02:08:45;;;;;;;;;;;6.30;78.00;;;;;;6127246;23;19901;-78
2022/11/30 02:11:12;;;;;;;;;;;6.30;84.20;;;;;;6128012;23;20004;-78
2022/11/30 02:13:56;;;;;;;;;;;6.30;90.50;;;;;;6127655;23;19901;-78
2022/11/30 02:16:37;;;;;;;;;;;6.30;81.80;;;;;;6127276;23;19904;-79
2022/11/30 02:19:21;;;;;;;;;;;6.30;64.20;;;;;;6127215;23;19977;-77
2022/11/30 02:21:52;;;;;;;;;;;6.20;41.50;;;;;;6101245;23;20293;-78
2022/11/30 02:24:35;;;;;;;;;;;6.20;62.50;;;;;;6127264;23;19908;-77
2022/11/30 02:27:12;;;;;;;;;;;6.30;84.10;;;;;;6127416;23;19956;-79
2022/11/30 02:29:43;;;;;;;;;;;6.30;99.90;;;;;;6127452;23;20240;-78
2022/11/30 02:32:27;;;;;;;;;;;6.30;90.80;;;;;;6127277;23;19924;-77
2022/11/30 02:34:53;;;;;;;;;;;6.20;91.50;;;;;;6127076;23;19979;-76
2022/11/30 02:37:20;;;;;;;;;;;6.30;76.60;;;;;;6127303;23;19905;-79
2022/11/30 02:39:46;;;;;;;;;;;6.30;80.40;;;;;;6127093;23;20339;-78
2022/11/30 02:42:12;;;;;;;;;;;6.30;99.90;;;;;;6127208;23;19909;-77
2022/11/30 02:44:38;;;;;;;;;;;6.40;99.90;;;;;;6126913;23;19944;-79
2022/11/30 02:47:16;;;;;;;;;;;6.40;99.90;;;;;;6127564;23;20342;-79
2022/11/30 02:49:42;;;;;;;;;;;6.50;99.90;;;;;;6126997;23;19955;-77
2022/11/30 02:52:09;;;;;;;;;;;6.50;99.90;;;;;;6126981;23;19904;-77
2022/11/30 02:54:34;;;;;;;;;;;6.50;99.90;;;;;;6127509;23;19948;-78
2022/11/30 02:57:00;;;;;;;;;;;6.50;99.90;;;;;;6127352;23;19901;-77
2022/11/30 02:59:25;;;;;;;;;;;6.50;99.90;;;;;;6126860;23;19948;-77
2022/11/30 03:01:51;;;;;;;;;;;6.50;99.90;;;;;;6126699;23;19916;-77
2022/11/30 03:04:16;;;;;;;;;;;6.60;99.90;;;;;;6127198;23;20279;-78
2022/11/30 03:06:42;;;;;;;;;;;6.60;99.90;;;;;;6126985;23;19932;-78
2022/11/30 03:09:08;;;;;;;;;;;6.60;99.90;;;;;;6126869;23;19901;-78
2022/11/30 03:11:33;;;;;;;;;;;6.50;99.90;;;;;;6126839;23;19901;-78
2022/11/30 03:13:59;;;;;;;;;;;6.60;99.90;;;;;;6126940;23;19901;-78
2022/11/30 03:16:24;;;;;;;;;;;6.60;99.90;;;;;;6126795;23;19952;-78
2022/11/30 03:18:50;;;;;;;;;;;6.70;99.90;;;;;;6127074;23;19932;-78
2022/11/30 03:21:16;;;;;;;;;;;6.70;99.90;;;;;;6126971;23;20008;-79
2022/11/30 03:23:41;;;;;;;;;;;6.70;99.90;;;;;;6126753;23;19956;-78
2022/11/30 03:26:07;;;;;;;;;;;6.70;99.90;;;;;;6125155;23;19904;-78
2022/11/30 03:28:34;;;;;;;;;;;6.60;99.90;;;;;;6126745;23;20217;-78
2022/11/30 03:30:59;;;;;;;;;;;6.60;99.90;;;;;;6126856;23;20024;-80
2022/11/30 03:33:25;;;;;;;;;;;6.60;99.90;;;;;;6126758;23;19936;-79
2022/11/30 03:36:07;;;;;;;;;;;6.60;99.90;;;;;;6126697;23;20317;-78
2022/11/30 03:38:33;;;;;;;;;;;6.70;99.90;;;;;;6126764;23;19905;-78
2022/11/30 03:41:03;;;;;;;;;;;6.70;99.90;;;;;;6126728;23;19922;-78
2022/11/30 03:43:29;;;;;;;;;;;6.70;99.90;;;;;;6127199;23;19948;-77
2022/11/30 03:45:54;;;;;;;;;;;6.80;99.90;;;;;;6127243;23;19905;-78
2022/11/30 03:48:20;;;;;;;;;;;6.80;99.90;;;;;;6126848;23;20300;-78
2022/11/30 03:50:48;;;;;;;;;;;6.80;99.90;;;;;;6126697;23;19901;-78
2022/11/30 03:53:18;;;;;;;;;;;6.90;99.90;;;;;;6100770;23;19908;-78
2022/11/30 03:55:43;;;;;;;;;;;6.90;99.90;;;;;;6126697;23;19908;-79
2022/11/30 03:58:09;;;;;;;;;;;6.90;99.90;;;;;;6126555;23;20320;-78
2022/11/30 04:00:34;;;;;;;;;;;6.90;99.90;;;;;;6126688;23;19901;-77
2022/11/30 04:03:01;;;;;;;;;;;7.00;99.90;;;;;;6100194;23;20264;-78
2022/11/30 04:05:26;;;;;;;;;;;7.00;99.90;;;;;;6126506;23;19920;-78
2022/11/30 04:07:52;;;;;;;;;;;7.10;99.90;;;;;;6126620;23;19908;-76
2022/11/30 04:10:17;;;;;;;;;;;7.10;99.90;;;;;;6126703;23;19952;-79
2022/11/30 04:12:43;;;;;;;;;;;7.10;99.90;;;;;;6126645;23;19985;-79
2022/11/30 04:15:09;;;;;;;;;;;7.10;99.90;;;;;;6126561;23;19907;-78
2022/11/30 04:17:34;;;;;;;;;;;7.20;99.90;;;;;;6127597;23;19901;-78
2022/11/30 04:20:00;;;;;;;;;;;7.20;99.90;;;;;;6128358;23;19948;-79
2022/11/30 04:22:26;;;;;;;;;;;7.20;99.90;;;;;;6128927;23;19901;-78
2022/11/30 04:24:51;;;;;;;;;;;7.20;99.90;;;;;;6128478;23;19908;-77
2022/11/30 04:27:17;;;;;;;;;;;7.20;99.90;;;;;;6128591;23;20320;-78
2022/11/30 04:29:43;;;;;;;;;;;7.20;99.90;;;;;;6128420;23;19901;-78
2022/11/30 04:32:08;;;;;;;;;;;7.30;99.00;;;;;;6128240;23;19901;-78
2022/11/30 04:34:34;;;;;;;;;;;7.20;51.80;;;;;;6128134;23;19901;-78
2022/11/30 04:36:59;;;;;;;;;;;7.30;29.10;;;;;;6128106;23;19908;-79
2022/11/30 04:39:25;;;;;;;;;;;7.30;40.70;;;;;;6128163;23;19901;-79
2022/11/30 04:41:50;;;;;;;;;;;7.30;5.00;;;;;;6128411;23;19952;-79
2022/11/30 04:44:16;;;;;;;;;;;7.30;1.00;;;;;;6128084;23;19908;-77
2022/11/30 04:46:41;;;;;;;;;;;7.20;1.00;;;;;;6128526;23;19908;-76
2022/11/30 04:49:07;;;;;;;;;;;7.20;1.00;;;;;;6128050;23;20324;-78
2022/11/30 04:51:32;;;;;;;;;;;7.20;1.00;;;;;;6128376;23;19908;-78
2022/11/30 04:53:58;;;;;;;;;;;7.30;24.90;;;;;;6128027;23;19976;-79
2022/11/30 04:56:24;;;;;;;;;;;7.30;13.40;;;;;;6127996;23;19900;-77
2022/11/30 04:58:49;;;;;;;;;;;7.20;13.10;;;;;;6128025;23;19911;-79
2022/11/30 05:01:15;;;;;;;;;;;7.30;29.40;;;;;;6127688;23;19920;-80
2022/11/30 05:03:40;;;;;;;;;;;7.30;16.80;;;;;;6128228;23;19905;-79
2022/11/30 05:06:06;;;;;;;;;;;7.30;23.40;;;;;;6127865;23;20283;-78
2022/11/30 05:08:31;;;;;;;;;;;7.30;33.90;;;;;;6128307;23;19912;-78
2022/11/30 05:10:57;;;;;;;;;;;7.40;21.70;;;;;;6127854;23;19901;-77
2022/11/30 05:13:23;;;;;;;;;;;7.40;1.00;;;;;;6127794;23;19972;-78
2022/11/30 05:15:49;;;;;;;;;;;7.50;1.00;;;;;;6101791;23;20209;-80
2022/11/30 05:18:15;;;;;;;;;;;7.40;1.00;;;;;;6128345;23;19935;-78
2022/11/30 05:20:40;;;;;;;;;;;7.40;1.00;;;;;;6127812;23;19905;-78
2022/11/30 05:23:06;;;;;;;;;;;7.40;1.00;;;;;;6127700;23;20296;-78
2022/11/30 05:25:31;;;;;;;;;;;7.30;1.00;;;;;;6127818;23;19908;-77
2022/11/30 05:27:57;;;;;;;;;;;7.30;1.00;;;;;;6127427;23;19901;-77
2022/11/30 05:30:22;;;;;;;;;;;7.20;99.90;;;;;;6127406;23;19948;-79
2022/11/30 05:32:48;;;;;;;;;;;7.20;99.90;;;;;;6127678;23;19908;-78
2022/11/30 05:35:14;;;;;;;;;;;7.20;99.90;;;;;;6127783;23;19901;-79
2022/11/30 05:37:39;;;;;;;;;;;7.10;99.90;;;;;;6127715;23;19955;-78
2022/11/30 05:40:05;;;;;;;;;;;7.10;99.90;;;;;;6127553;23;20035;-78
2022/11/30 05:42:31;;;;;;;;;;;7.00;99.90;;;;;;6127403;23;19901;-80
2022/11/30 05:44:56;;;;;;;;;;;7.00;99.90;;;;;;6127381;23;19949;-78
2022/11/30 05:47:22;;;;;;;;;;;7.00;99.90;;;;;;6102165;23;20324;-77
2022/11/30 05:49:47;;;;;;;;;;;7.00;99.90;;;;;;6127515;23;19900;-77
2022/11/30 05:52:13;;;;;;;;;;;7.00;99.90;;;;;;6127431;23;19904;-78
2022/11/30 05:54:38;;;;;;;;;;;7.10;99.90;;;;;;6127967;23;19908;-78
2022/11/30 05:57:04;;;;;;;;;;;7.00;99.90;;;;;;6127444;23;20346;-77
2022/11/30 05:59:30;;;;;;;;;;;7.00;99.90;;;;;;6127288;23;19901;-78
2022/11/30 06:01:55;;;;;;;;;;;7.00;99.90;;;;;;6127197;23;19983;-79
2022/11/30 06:04:21;;;;;;;;;;;7.00;99.90;;;;;;6127404;23;19905;-77
2022/11/30 06:06:48;;;;;;;;;;;7.00;99.90;;;;;;6127532;23;19956;-78
2022/11/30 06:09:14;;;;;;;;;;;7.10;99.90;;;;;;6127311;23;19900;-78
2022/11/30 06:11:39;;;;;;;;;;;7.10;99.90;;;;;;6127263;23;20040;-78
2022/11/30 06:14:05;;;;;;;;;;;7.10;99.90;;;;;;6127282;23;19905;-78
2022/11/30 06:16:30;;;;;;;;;;;7.10;99.90;;;;;;6127160;23;20367;-78
2022/11/30 06:18:56;;;;;;;;;;;7.10;99.90;;;;;;6127420;23;19940;-78
2022/11/30 06:21:21;;;;;;;;;;;7.10;99.90;;;;;;6127285;23;19905;-78
2022/11/30 06:23:47;;;;;;;;;;;7.10;99.90;;;;;;6127138;23;20244;-78
2022/11/30 06:26:12;;;;;;;;;;;7.10;99.90;;;;;;6127047;23;19905;-79
2022/11/30 06:28:39;;;;;;;;;;;7.10;27.40;;;;;;6127339;23;20217;-78
2022/11/30 06:31:05;;;;;;;;;;;7.00;99.90;;;;;;6127102;23;19907;-80
2022/11/30 06:33:31;;;;;;;;;;;7.00;99.90;;;;;;6127288;23;19901;-79
2022/11/30 06:35:57;;;;;;;;;;;7.00;99.90;;;;;;6127906;23;20375;-79
2022/11/30 06:38:24;;;;;;;;;;;7.00;99.90;;;;;;6127517;23;19939;-78
2022/11/30 06:40:50;;;;;;;;;;;7.00;99.90;;;;;;6126860;23;20374;-78
2022/11/30 06:43:16;;;;;;;;;;;7.00;99.90;;;;;;6127263;23;19980;-78
2022/11/30 06:45:42;;;;;;;;;;;7.10;99.90;;;;;;6126911;23;19962;-79
2022/11/30 06:48:08;;;;;;;;;;;7.00;99.90;;;;;;6127812;23;19955;-79
2022/11/30 06:50:33;;;;;;;;;;;7.10;99.90;;;;;;6126922;23;19904;-79
2022/11/30 06:52:59;;;;;;;;;;;7.10;99.90;;;;;;6126984;23;19976;-79
2022/11/30 06:55:24;;;;;;;;;;;7.20;99.90;;;;;;6126864;23;20235;-78
2022/11/30 06:57:50;;;;;;;;;;;7.20;99.90;;;;;;6127218;23;19900;-79
2022/11/30 07:00:16;;;;;;;;;;;7.20;99.90;;;;;;6127104;23;20312;-78
2022/11/30 07:02:41;;;;;;;;;;;7.20;99.90;;;;;;6100219;23;19991;-78
2022/11/30 07:05:07;;;;;;;;;;;7.20;99.90;;;;;;6126830;23;19911;-78
2022/11/30 07:07:32;;;;;;;;;;;7.20;99.90;;;;;;6126970;23;20239;-79
2022/11/30 07:09:59;;;;;;;;;;;7.20;99.90;;;;;;6127081;23;19917;-79
2022/11/30 07:12:25;;;;;;;;;;;7.20;99.90;;;;;;6127272;23;19932;-80
2022/11/30 07:14:52;;;;;;;;;;;7.20;99.90;;;;;;6126816;23;19960;-80
2022/11/30 07:17:18;;;;;;;;;;;7.20;99.90;;;;;;6126823;23;20320;-79
2022/11/30 07:19:44;;;;;;;;;;;7.20;99.90;;;;;;6126853;23;19907;-78
2022/11/30 07:22:10;;;;;;;;;;;7.20;99.90;;;;;;6126820;23;19905;-79
2022/11/30 07:27:19;;;;;;;;;;;7.20;99.90;;;;;;6126706;23;19939;-77
2022/11/30 07:29:47;;;;;;;;;;;7.20;99.90;;;;;;6126792;23;19901;-79
2022/11/30 07:32:13;;;;;;;;;;;7.20;99.90;;;;;;6127156;23;19901;-78
2022/11/30 07:34:39;;;;;;;;;;;7.20;99.90;;;;;;6126763;23;20386;-80
2022/11/30 07:37:04;;;;;;;;;;;7.20;99.90;;;;;;6126801;23;20350;-79
2022/11/30 07:39:30;;;;;;;;;;;7.20;99.90;;;;;;6100767;23;19908;-78
2022/11/30 07:41:55;;;;;;;;;;;7.20;99.90;;;;;;6126769;23;19900;-79
2022/11/30 07:44:21;;;;;;;;;;;7.20;99.90;;;;;;6127164;23;20052;-79
2022/11/30 07:46:47;;;;;;;;;;;7.20;99.90;;;;;;6127199;23;20317;-78
2022/11/30 07:49:12;;;;;;;;;;;7.20;99.90;;;;;;6126656;23;19930;-78
2022/11/30 07:51:38;;;;;;;;;;;7.30;99.90;;;;;;6127162;23;19952;-78
2022/11/30 07:54:03;;;;;;;;;;;7.20;99.90;;;;;;6129031;23;19901;-79
2022/11/30 07:56:29;;;;;;;;;;;7.30;99.90;;;;;;6128591;23;19901;-79
2022/11/30 07:58:57;;;;;;;;;;;7.30;99.90;;;;;;6128641;23;20350;-76
2022/11/30 08:01:23;;;;;;;;;;;7.30;99.90;;;;;;6128289;23;19917;-78
2022/11/30 08:03:49;;;;;;;;;;;7.30;99.90;;;;;;6128546;23;19905;-78
2022/11/30 08:06:18;;;;;;;;;;;7.40;99.90;;;;;;6128653;23;19909;-78
2022/11/30 08:08:45;;;;;;;;;;;7.40;99.90;;;;;;6102588;23;19908;-80
2022/11/30 08:11:12;;;;;;;;;;;7.40;99.90;;;;;;6128417;23;19932;-79
2022/11/30 08:13:38;;;;;;;;;;;7.40;99.90;;;;;;6128491;23;19901;-78
2022/11/30 08:16:05;;;;;;;;;;;7.40;99.90;;;;;;6128677;23;20338;-79
2022/11/30 08:18:31;;;;;;;;;;;7.50;99.90;;;;;;6128518;23;20386;-78
2022/11/30 08:20:57;;;;;;;;;;;7.50;99.90;;;;;;6128313;23;19901;-79
2022/11/30 08:23:23;;;;;;;;;;;7.60;99.90;;;;;;6128516;23;20331;-78
2022/11/30 08:25:48;;;;;;;;;;;7.50;99.90;;;;;;6128754;23;19905;-79
2022/11/30 08:28:14;;;;;;;;;;;7.50;99.90;;;;;;6128218;23;19956;-77
2022/11/30 08:30:39;;;;;;;;;;;7.50;99.90;;;;;;6128403;23;19901;-78
2022/11/30 08:33:06;;;;;;;;;;;7.50;99.90;;;;;;6128381;23;19908;-80
2022/11/30 08:35:31;;;;;;;;;;;7.40;99.90;;;;;;6128122;23;19905;-77
2022/11/30 08:37:57;;;;;;;;;;;7.40;99.90;;;;;;6128373;23;20028;-79
2022/11/30 08:40:23;;;;;;;;;;;7.50;99.90;;;;;;6128198;23;20342;-80
2022/11/30 08:42:49;;;;;;;;;;;7.50;99.90;;;;;;6128306;23;19901;-80
2022/11/30 08:45:14;;;;;;;;;;;7.60;99.90;;;;;;6127973;23;19972;-77
2022/11/30 08:47:40;;;;;;;;;;;7.50;99.90;;;;;;6128661;23;19901;-79
2022/11/30 08:50:06;;;;;;;;;;;7.50;99.90;;;;;;6102056;23;19908;-79
2022/11/30 08:52:31;;;;;;;;;;;7.60;99.90;;;;;;6128028;23;20351;-80
2022/11/30 08:54:57;;;;;;;;;;;7.60;95.10;;;;;;6128046;23;19901;-78
2022/11/30 08:57:22;;;;;;;;;;;7.70;47.90;;;;;;6128342;23;19932;-79
2022/11/30 08:59:48;;;;;;;;;;;7.80;5.00;;;;;;6128100;23;20304;-79
2022/11/30 09:02:18;;;;;;;;;;;7.80;1.00;;;;;;6127584;23;19984;-78
2022/11/30 09:04:44;;;;;;;;;;;7.80;1.00;;;;;;6127922;23;19907;-79
2022/11/30 09:07:10;;;;;;;;;;;7.90;1.00;;;;;;6127620;23;19976;-80
2022/11/30 09:09:35;;;;;;;;;;;7.90;1.00;;;;;;6128103;23;19960;-79
2022/11/30 09:12:01;;;;;;;;;;;7.90;1.00;;;;;;6127835;23;19901;-78
2022/11/30 09:14:27;;;;;;;;;;;8.00;1.00;;;;;;6127870;23;20228;-80
2022/11/30 09:16:53;;;;;;;;;;;8.00;99.90;;;;;;6127693;23;19908;-79
2022/11/30 09:19:19;;;;;;;;;;;8.00;99.90;;;;;;6127708;23;20275;-80
2022/11/30 09:21:44;;;;;;;;;;;8.10;99.90;;;;;;6127686;23;19950;-80
2022/11/30 09:24:10;;;;;;;;;;;8.10;99.90;;;;;;6127685;23;19960;-78
2022/11/30 09:26:36;;;;;;;;;;;8.10;99.90;;;;;;6127413;23;19912;-79
2022/11/30 09:29:01;;;;;;;;;;;8.10;99.90;;;;;;6127756;23;20136;-80
2022/11/30 09:31:27;;;;;;;;;;;8.20;99.90;;;;;;6127813;23;19901;-77
2022/11/30 09:33:54;;;;;;;;;;;8.20;99.90;;;;;;6101567;23;19908;-79
2022/11/30 09:36:20;;;;;;;;;;;8.30;99.90;;;;;;6127732;23;20235;-79
2022/11/30 09:38:47;;;;;;;;;;;8.30;99.90;;;;;;6127628;23;19908;-80
2022/11/30 09:41:27;;;;;;;;;;;8.30;99.90;;;;;;6127435;23;19912;-79
2022/11/30 09:43:56;;;;;;;;;;;8.40;99.90;;;;;;6127543;23;20339;-79
2022/11/30 09:46:29;;;;;;;;;;;8.40;99.90;;;;;;6127400;23;19905;-79
2022/11/30 09:48:58;;;;;;;;;;;8.50;99.90;;;;;;6128275;23;20235;-79
2022/11/30 09:51:30;;;;;;;;;;;8.50;99.90;;;;;;6101469;23;19901;-80
2022/11/30 09:53:58;;;;;;;;;;;8.70;99.90;;;;;;6127387;23;19980;-79
2022/11/30 09:56:29;;;;;;;;;;;8.90;99.90;;;;;;6127577;23;20239;-79
2022/11/30 09:59:14;;;;;;;;;;;9.20;99.90;;;;;;6127416;23;19937;-78
2022/11/30 10:01:42;;;;;;;;;;;9.60;99.90;;;;;;6126042;23;19913;-80
2022/11/30 10:04:19;;;;;;;;;;;9.60;99.90;;;;;;6127594;23;19908;-79
2022/11/30 10:07:03;;;;;;;;;;;9.60;99.90;;;;;;6127376;23;19912;-79
2022/11/30 10:09:45;;;;;;;;;;;9.50;99.90;;;;;;6127248;23;19900;-79
2022/11/30 10:12:18;;;;;;;;;;;9.50;99.90;;;;;;6127444;23;19996;-79
2022/11/30 10:14:59;;;;;;;;;;;9.60;99.90;;;;;;6126959;23;19901;-80
2022/11/30 10:17:28;;;;;;;;;;;9.70;99.90;;;;;;6100956;23;20346;-79
2022/11/30 10:20:06;;;;;;;;;;;9.70;99.90;;;;;;6127456;23;19901;-80
2022/11/30 10:22:50;;;;;;;;;;;9.70;99.90;;;;;;6127170;23;19976;-80
2022/11/30 10:25:23;;;;;;;;;;;9.80;99.90;;;;;;6127023;23;19905;-80
2022/11/30 10:27:53;;;;;;;;;;;9.90;99.90;;;;;;6127601;23;19908;-79
2022/11/30 10:30:32;;;;;;;;;;;10.10;99.90;;;;;;6127120;23;19947;-79
2022/11/30 10:33:00;;;;;;;;;;;10.20;99.90;;;;;;6127151;23;19901;-78
2022/11/30 10:35:40;;;;;;;;;;;10.30;99.90;;;;;;6127020;23;19908;-79
2022/11/30 10:38:18;;;;;;;;;;;10.50;99.90;;;;;;6127221;23;20324;-78
2022/11/30 10:40:55;;;;;;;;;;;10.50;99.90;;;;;;6127070;23;19901;-77
2022/11/30 10:43:27;;;;;;;;;;;10.40;99.90;;;;;;6127094;23;19907;-80
2022/11/30 10:45:52;;;;;;;;;;;10.20;99.90;;;;;;6126766;23;19909;-78
2022/11/30 10:48:20;;;;;;;;;;;10.10;99.90;;;;;;6127573;23;19901;-79
2022/11/30 10:50:46;;;;;;;;;;;10.20;99.90;;;;;;6126938;23;19923;-77
2022/11/30 10:53:12;;;;;;;;;;;10.80;99.90;;;;;;6126954;23;20335;-78
2022/11/30 10:55:39;;;;;;;;;;;12.30;99.90;;;;;;6126916;23;19925;-80
2022/11/30 10:58:20;;;;;;;;;;;16.10;82.40;;;;;;6126828;23;19908;-81
2022/11/30 11:00:57;;;;;;;;;;;17.90;1.00;;;;;;6126588;23;19901;-82
2022/11/30 11:03:24;;;;;;;;;;;19.40;1.00;;;;;;6126881;23;19908;-79
2022/11/30 11:06:02;;;;;;;;;;;19.80;1.00;;;;;;6127105;23;20324;-81
2022/11/30 11:08:27;;;;;;;;;;;19.90;1.00;;;;;;6126858;23;19901;-80
2022/11/30 11:10:53;;;;;;;;;;;20.70;1.00;;;;;;6127093;23;19908;-79
2022/11/30 11:13:39;;;;;;;;;;;21.60;1.00;;;;;;6126864;23;20319;-81
2022/11/30 11:16:06;;;;;;;;;;;21.30;1.00;;;;;;6126067;23;19980;-81
2022/11/30 11:18:32;;;;;;;;;;;22.00;1.00;;;;;;6127014;23;20391;-81
2022/11/30 11:21:18;;;;;;;;;;;21.00;1.00;;;;;;6126901;23;19928;-80
2022/11/30 11:23:45;;;;;;;;;;;18.80;1.00;;;;;;6126187;23;19901;-79
2022/11/30 11:26:19;;;;;;;;;;;16.60;1.00;;;;;;6128023;23;19904;-80
2022/11/30 11:28:47;;;;;;;;;;;14.90;1.00;;;;;;6129005;23;19905;-79
2022/11/30 11:31:18;;;;;;;;;;;14.00;1.00;;;;;;6129055;23;20346;-79
2022/11/30 11:33:53;;;;;;;;;;;13.30;8.40;;;;;;6128715;23;19908;-78
2022/11/30 11:36:26;;;;;;;;;;;12.60;23.30;;;;;;6128690;23;19952;-78
2022/11/30 11:38:52;;;;;;;;;;;12.80;25.60;;;;;;6128938;23;20375;-79
2022/11/30 11:41:26;;;;;;;;;;;13.00;17.60;;;;;;6128681;23;19924;-78
2022/11/30 11:44:00;;;;;;;;;;;13.60;10.00;;;;;;6128685;23;20279;-79
2022/11/30 11:46:30;;;;;;;;;;;15.90;4.80;;;;;;6128873;23;20295;-80
2022/11/30 11:48:55;;;;;;;;;;;18.10;1.00;;;;;;6129121;23;19908;-80
2022/11/30 11:51:32;;;;;;;;;;;18.70;1.00;;;;;;6128752;23;19900;-79
2022/11/30 11:53:59;;;;;;;;;;;19.60;1.00;;;;;;6128637;23;20334;-80
2022/11/30 11:56:26;;;;;;;;;;;20.50;1.00;;;;;;6102593;23;19901;-81
2022/11/30 11:59:00;;;;;;;;;;;20.40;1.00;;;;;;6128667;23;19901;-82
2022/11/30 12:01:31;;;;;;;;;;;21.10;1.00;;;;;;6128104;23;19983;-81
2022/11/30 12:04:04;;;;;;;;;;;22.30;1.00;;;;;;6128718;23;19901;-80
2022/11/30 12:06:30;;;;;;;;;;;21.50;1.00;;;;;;6128457;23;19939;-78
2022/11/30 12:08:59;;;;;;;;;;;20.90;1.00;;;;;;6128303;23;19908;-81
2022/11/30 12:11:42;;;;;;;;;;;19.50;1.00;;;;;;6128309;23;19951;-78
2022/11/30 12:14:11;;;;;;;;;;;18.70;1.00;;;;;;6128499;23;19941;-81
2022/11/30 12:16:40;;;;;;;;;;;18.10;1.00;;;;;;6102436;23;19901;-80
2022/11/30 12:19:14;;;;;;;;;;;17.10;1.00;;;;;;6128328;23;19980;-78
2022/11/30 12:21:55;;;;;;;;;;;16.10;1.00;;;;;;6128521;23;20247;-79
2022/11/30 12:24:32;;;;;;;;;;;15.50;1.00;;;;;;6128360;23;20338;-78
2022/11/30 12:27:03;;;;;;;;;;;14.90;1.00;;;;;;6128222;23;19905;-79
2022/11/30 12:29:47;;;;;;;;;;;14.50;1.00;;;;;;6128521;23;19900;-77
2022/11/30 12:32:22;;;;;;;;;;;13.60;1.00;;;;;;6128240;23;20343;-79
2022/11/30 12:35:05;;;;;;;;;;;13.30;12.60;;;;;;6128318;23;20324;-80
2022/11/30 12:37:40;;;;;;;;;;;13.20;13.40;;;;;;6127836;23;19935;-77
2022/11/30 12:40:26;;;;;;;;;;;13.00;16.00;;;;;;6128294;23;19901;-79
2022/11/30 12:42:58;;;;;;;;;;;12.80;25.10;;;;;;6128271;23;19967;-78
2022/11/30 12:45:33;;;;;;;;;;;12.60;23.80;;;;;;6128322;23;19905;-78
2022/11/30 12:47:59;;;;;;;;;;;12.90;25.40;;;;;;6128733;23;19901;-79
2022/11/30 12:50:43;;;;;;;;;;;13.00;18.80;;;;;;6128164;23;19980;-79
2022/11/30 12:53:18;;;;;;;;;;;13.40;18.50;;;;;;6128069;23;19900;-80
2022/11/30 12:56:13;;;;;;;;;;;13.60;12.90;;;;;;6128490;23;19901;-79
2022/11/30 12:58:41;;;;;;;;;;;13.80;7.10;;;;;;6108776;23;19901;-79
2022/11/30 13:01:06;;;;;;;;;;;13.40;6.20;;;;;;6127746;23;20307;-78
2022/11/30 13:03:42;;;;;;;;;;;13.30;9.40;;;;;;6128239;23;19901;-80
2022/11/30 13:06:22;;;;;;;;;;;13.40;12.50;;;;;;6128071;23;20389;-78
2022/11/30 13:08:54;;;;;;;;;;;13.80;10.80;;;;;;6127916;23;19901;-79
2022/11/30 13:11:28;;;;;;;;;;;16.00;1.00;;;;;;6127858;23;19901;-78
2022/11/30 13:13:56;;;;;;;;;;;15.80;1.00;;;;;;6127947;23;19992;-79
2022/11/30 13:16:22;;;;;;;;;;;15.20;1.00;;;;;;6128301;23;19900;-77
2022/11/30 13:18:49;;;;;;;;;;;14.90;1.00;;;;;;6127885;23;19936;-79
2022/11/30 13:21:27;;;;;;;;;;;14.30;1.00;;;;;;6127852;23;19980;-79
2022/11/30 13:23:57;;;;;;;;;;;13.70;9.10;;;;;;6127772;23;20243;-78
2022/11/30 13:26:27;;;;;;;;;;;13.90;11.80;;;;;;6128038;23;20324;-80
2022/11/30 13:29:11;;;;;;;;;;;13.70;10.90;;;;;;6127997;23;20290;-80
2022/11/30 13:31:39;;;;;;;;;;;14.00;9.30;;;;;;6127625;23;19944;-79
2022/11/30 13:34:31;;;;;;;;;;;14.20;11.90;;;;;;6127972;23;19908;-79
2022/11/30 13:37:00;;;;;;;;;;;14.70;5.80;;;;;;6123410;23;20251;-80
2022/11/30 13:39:26;;;;;;;;;;;17.90;1.00;;;;;;6127531;23;19983;-80
2022/11/30 13:42:01;;;;;;;;;;;20.70;1.00;;;;;;6127926;23;19901;-79
2022/11/30 13:44:34;;;;;;;;;;;22.40;1.00;;;;;;6127517;23;19928;-78
2022/11/30 13:47:01;;;;;;;;;;;23.10;1.00;;;;;;6127424;23;19928;-80
2022/11/30 13:49:36;;;;;;;;;;;23.70;1.00;;;;;;6127615;23;20283;-80
2022/11/30 13:52:02;;;;;;;;;;;23.30;1.00;;;;;;6127469;23;20227;-80
2022/11/30 13:54:37;;;;;;;;;;;22.50;1.00;;;;;;6127480;23;20320;-81
2022/11/30 13:57:14;;;;;;;;;;;22.70;1.00;;;;;;6127591;23;19905;-80
2022/11/30 13:59:47;;;;;;;;;;;22.90;1.00;;;;;;6127566;23;19901;-79
2022/11/30 14:02:31;;;;;;;;;;;22.70;1.00;;;;;;6127314;23;19967;-80
2022/11/30 14:05:28;;;;;;;;;;;22.60;1.00;;;;;;6127502;23;19908;-78
2022/11/30 14:08:05;;;;;;;;;;;22.20;1.00;;;;;;6053680;23;19901;-78
2022/11/30 14:10:30;;;;;;;;;;;22.30;1.00;;;;;;6127306;23;19901;-81
2022/11/30 14:13:21;;;;;;;;;;;22.20;1.00;;;;;;6127294;23;19948;-80
2022/11/30 14:15:46;;;;;;;;;;;22.40;1.00;;;;;;6113094;23;19900;-80
2022/11/30 14:18:19;;;;;;;;;;;22.60;1.00;;;;;;6127212;23;19936;-80
2022/11/30 14:20:50;;;;;;;;;;;22.50;1.00;;;;;;6127144;23;19908;-78
2022/11/30 14:23:34;;;;;;;;;;;22.20;1.00;;;;;;6127197;23;19901;-79
2022/11/30 14:26:05;;;;;;;;;;;22.20;1.00;;;;;;6101091;23;19905;-80
2022/11/30 14:28:38;;;;;;;;;;;21.90;1.00;;;;;;6127202;23;19900;-80
2022/11/30 14:31:09;;;;;;;;;;;21.70;1.00;;;;;;6127099;23;19956;-79
2022/11/30 14:33:39;;;;;;;;;;;21.50;1.00;;;;;;6127281;23;19900;-80
2022/11/30 14:36:06;;;;;;;;;;;21.40;1.00;;;;;;6127545;23;20209;-80
2022/11/30 14:38:36;;;;;;;;;;;21.40;1.00;;;;;;6127033;23;19901;-79
2022/11/30 14:41:02;;;;;;;;;;;21.30;1.00;;;;;;6127318;23;19901;-79
2022/11/30 14:43:28;;;;;;;;;;;21.30;1.00;;;;;;6125243;23;19976;-81